Lhunze, China
Current Conditions -  °F | °C
As of 2:50 AM on Sunday 26 Oct 2014 (Local Time) from VGHS Reporting Station
Haze Haze  
Wind Chill: 79°   Ceiling: 1000
Heat Index: 81°   Visibility: 2.5mi
Dew Point: 70°   Wind: 0mph
Humidity: 74%   Direction: NA
Pressure: 29.85"   Gusts: NA
Location:  28.42°N, 92.47°E
Report Text: VGHS 251850Z 00000KT 4000 HZ BKN010 BKN100 26/21 Q1011 TEMPORA
Loading
Personal Weather Stations






























Interactive Weather Map
Tropical Storm Tracking
New forecast layout! Learn more

10-Day Weather Forecast

Advertisements
Track Severe Weather on mobile